createdAt,value
2018-11-11T00:00:42.354Z,13.50
2018-11-11T00:05:45.783Z,13.60
2018-11-11T00:10:49.172Z,13.50
2018-11-11T00:15:52.605Z,13.60
2018-11-11T00:20:55.915Z,13.70
2018-11-11T00:25:59.311Z,13.60
2018-11-11T00:31:02.748Z,13.60
2018-11-11T00:36:06.251Z,13.50
2018-11-11T00:50:44.223Z,13.50
2018-11-11T00:55:48.564Z,13.30
2018-11-11T01:01:03.018Z,13.10
2018-11-11T01:06:06.521Z,13.10
2018-11-11T01:11:10.031Z,13.10
2018-11-11T01:16:16.936Z,13.20
2018-11-11T01:21:20.372Z,13.30
2018-11-11T01:26:23.868Z,13.40
2018-11-11T01:31:27.340Z,13.40
2018-11-11T01:36:34.447Z,13.40
2018-11-11T01:41:38.396Z,13.40
2018-11-11T01:46:41.843Z,13.40
2018-11-11T01:51:45.416Z,13.30
2018-11-11T01:56:48.808Z,13.40
2018-11-11T02:01:52.158Z,13.30
2018-11-11T02:06:55.472Z,13.40
2018-11-11T02:11:58.852Z,13.40
2018-11-11T02:17:02.170Z,13.40
2018-11-11T02:22:05.509Z,13.50
2018-11-11T02:27:08.756Z,13.30
2018-11-11T02:32:12.230Z,13.20
2018-11-11T02:37:15.683Z,13.00
2018-11-11T02:42:18.956Z,12.90
2018-11-11T02:47:22.612Z,12.90
2018-11-11T02:52:25.902Z,12.80
2018-11-11T02:57:29.176Z,12.80
2018-11-11T03:02:32.490Z,12.80
2018-11-11T03:07:35.941Z,12.90
2018-11-11T03:12:39.761Z,12.90
2018-11-11T03:17:43.015Z,12.90
2018-11-11T03:22:46.292Z,12.70
2018-11-11T03:27:49.571Z,12.60
2018-11-11T03:32:52.917Z,12.40
2018-11-11T03:37:56.268Z,12.40
2018-11-11T03:43:00.878Z,12.50
2018-11-11T03:48:04.408Z,12.50
2018-11-11T03:53:07.705Z,12.40
2018-11-11T03:58:11.012Z,12.40
2018-11-11T04:03:14.300Z,12.10
2018-11-11T04:08:17.558Z,12.10
2018-11-11T04:13:20.910Z,12.00
2018-11-11T04:18:24.270Z,11.90
2018-11-11T04:23:28.542Z,11.80
2018-11-11T04:28:36.769Z,11.80
2018-11-11T04:33:40.243Z,11.60
2018-11-11T04:38:43.527Z,11.50
2018-11-11T04:43:46.911Z,11.40
2018-11-11T04:48:50.332Z,11.40
2018-11-11T04:53:53.620Z,11.40
2018-11-11T04:58:56.929Z,11.30
2018-11-11T05:04:00.393Z,11.40
2018-11-11T05:09:05.028Z,11.40
2018-11-11T05:14:09.677Z,11.40
2018-11-11T05:19:13.052Z,11.50
2018-11-11T05:24:17.257Z,11.60
2018-11-11T05:29:20.583Z,11.50
2018-11-11T05:34:23.892Z,11.50
2018-11-11T05:39:27.165Z,11.40
2018-11-11T05:44:30.557Z,11.40
2018-11-11T05:49:33.985Z,11.50
2018-11-11T05:54:37.413Z,11.60
2018-11-11T05:59:40.902Z,11.60
2018-11-11T06:04:44.605Z,11.70
2018-11-11T06:09:49.051Z,11.80
2018-11-11T06:14:52.565Z,11.90
2018-11-11T06:42:19.070Z,12.20
2018-11-11T06:47:22.689Z,12.20
2018-11-11T06:52:26.387Z,12.30
2018-11-11T06:57:30.188Z,12.40
2018-11-11T07:02:37.084Z,12.40
2018-11-11T07:07:40.771Z,12.40
2018-11-11T07:12:44.517Z,12.40
2018-11-11T07:17:48.071Z,12.40
2018-11-11T07:22:51.827Z,12.40
2018-11-11T07:27:56.357Z,12.40
2018-11-11T07:33:01.171Z,12.40
2018-11-11T07:38:05.816Z,12.40
2018-11-11T07:43:10.233Z,12.30
2018-11-11T07:48:14.131Z,12.30
2018-11-11T07:53:17.677Z,12.40
2018-11-11T07:58:21.632Z,12.40
2018-11-11T08:03:25.122Z,12.60
2018-11-11T08:08:28.733Z,12.80
2018-11-11T08:13:32.285Z,13.20
2018-11-11T08:18:35.834Z,13.30
2018-11-11T08:23:39.414Z,13.60
2018-11-11T08:28:42.988Z,13.60
2018-11-11T08:33:46.549Z,13.70
2018-11-11T08:38:51.678Z,13.80
2018-11-11T08:43:56.463Z,14.20
2018-11-11T08:48:59.964Z,14.80
2018-11-11T08:54:07.110Z,15.10
2018-11-11T08:59:10.665Z,15.60
2018-11-11T09:04:14.152Z,15.90
2018-11-11T09:09:19.807Z,16.30
2018-11-11T09:31:19.767Z,16.50
2018-11-11T09:36:25.010Z,17.20
2018-11-11T09:41:29.068Z,17.20
2018-11-11T09:46:33.297Z,17.60
2018-11-11T09:51:36.655Z,17.40
2018-11-11T09:56:40.236Z,17.60
2018-11-11T10:01:43.942Z,17.50
2018-11-11T10:13:00.770Z,18.00
2018-11-11T10:24:01.961Z,18.30
2018-11-11T10:29:13.024Z,18.50
2018-11-11T10:34:49.559Z,18.80
2018-11-11T10:39:58.380Z,18.90
2018-11-11T10:45:03.632Z,19.20
2018-11-11T10:50:09.108Z,19.20
2018-11-11T10:55:13.345Z,18.50
2018-11-11T11:00:22.095Z,18.10
2018-11-11T11:05:26.269Z,19.00
2018-11-11T11:10:34.673Z,19.80
2018-11-11T11:15:39.371Z,19.70
2018-11-11T11:20:43.671Z,19.90
2018-11-11T11:25:52.665Z,19.80
2018-11-11T11:36:27.495Z,20.80
2018-11-11T11:41:31.110Z,20.60
2018-11-11T11:46:35.447Z,19.90
2018-11-11T11:51:38.907Z,19.80
2018-11-11T11:56:42.333Z,19.80
2018-11-11T12:01:45.768Z,19.40
2018-11-11T12:06:49.129Z,19.50
2018-11-11T12:11:52.518Z,19.30
2018-11-11T12:16:56.165Z,18.90
2018-11-11T12:22:00.419Z,18.40
2018-11-11T12:27:05.340Z,18.20
2018-11-11T12:32:08.740Z,18.00
2018-11-11T12:37:12.144Z,18.20
2018-11-11T12:42:15.985Z,18.10
2018-11-11T12:47:19.464Z,17.90
2018-11-11T12:52:23.703Z,17.70
2018-11-11T12:57:27.260Z,17.50
2018-11-11T13:02:30.664Z,17.50
2018-11-11T13:07:34.556Z,17.70
2018-11-11T13:12:38.053Z,17.80
2018-11-11T13:17:42.314Z,17.90
2018-11-11T13:22:45.991Z,18.30
2018-11-11T13:27:49.356Z,18.20
2018-11-11T13:32:53.222Z,17.80
2018-11-11T13:37:57.084Z,17.80
2018-11-11T13:43:00.545Z,17.90
2018-11-11T13:48:03.999Z,18.10
2018-11-11T13:53:07.619Z,18.30
2018-11-11T13:58:11.229Z,18.40
2018-11-11T14:03:14.801Z,18.40
2018-11-11T14:08:18.187Z,18.60
2018-11-11T14:13:21.724Z,18.80
2018-11-11T14:18:26.139Z,19.10
2018-11-11T14:23:29.358Z,18.90
2018-11-11T14:28:32.867Z,18.50
2018-11-11T14:33:36.490Z,17.90
2018-11-11T14:38:41.131Z,17.40
2018-11-11T14:43:47.733Z,17.30
2018-11-11T14:48:52.025Z,17.40
2018-11-11T14:53:56.362Z,17.20
2018-11-11T14:59:00.232Z,17.20
2018-11-11T15:04:05.127Z,17.10
2018-11-11T15:09:10.811Z,17.00
2018-11-11T15:14:14.332Z,17.00
2018-11-11T15:19:18.893Z,17.10
2018-11-11T15:24:23.649Z,17.00
2018-11-11T15:29:27.642Z,17.00
2018-11-11T15:34:34.062Z,17.00
2018-11-11T15:39:38.242Z,16.90
2018-11-11T15:44:42.062Z,16.80
2018-11-11T15:49:53.801Z,16.50
2018-11-11T15:54:57.419Z,16.30
2018-11-11T16:00:05.541Z,16.20
2018-11-11T16:05:13.629Z,16.10
2018-11-11T16:10:21.753Z,15.80
2018-11-11T16:15:32.053Z,15.60
2018-11-11T16:20:38.182Z,15.40
2018-11-11T16:25:47.848Z,15.30
2018-11-11T16:30:53.633Z,15.10
2018-11-11T16:35:59.178Z,15.00
2018-11-11T16:41:02.494Z,14.90
2018-11-11T16:46:05.754Z,14.70
2018-11-11T16:51:10.359Z,14.60
2018-11-11T16:56:18.404Z,14.60
2018-11-11T17:01:25.281Z,14.50
2018-11-11T17:06:28.735Z,14.40
2018-11-11T17:11:32.100Z,14.60
2018-11-11T17:16:35.529Z,14.50
2018-11-11T17:21:39.171Z,14.50
2018-11-11T17:26:42.336Z,14.40
2018-11-11T17:31:45.916Z,14.20
2018-11-11T17:36:49.178Z,14.00
2018-11-11T17:41:52.861Z,13.80
2018-11-11T17:46:56.486Z,13.60
2018-11-11T17:51:59.991Z,13.40
2018-11-11T17:57:03.473Z,13.20
2018-11-11T18:08:03.457Z,13.00
2018-11-11T18:13:21.829Z,12.90
2018-11-11T18:18:25.324Z,12.80
2018-11-11T18:23:28.683Z,12.70
2018-11-11T18:28:32.809Z,12.50
2018-11-11T18:33:38.134Z,12.50
2018-11-11T18:38:43.592Z,12.30
2018-11-11T18:43:47.711Z,12.30
2018-11-11T18:48:51.120Z,12.20
2018-11-11T18:53:55.845Z,12.20
2018-11-11T18:58:59.868Z,12.10
2018-11-11T19:04:08.120Z,12.10
2018-11-11T19:09:14.048Z,12.30
2018-11-11T19:14:17.740Z,12.40
2018-11-11T19:19:23.301Z,12.40
2018-11-11T19:24:26.928Z,12.20
2018-11-11T19:29:33.587Z,12.10
2018-11-11T19:37:26.084Z,12.10
2018-11-11T19:42:39.179Z,12.10
2018-11-11T19:47:46.761Z,12.10
2018-11-11T19:52:53.381Z,12.10
2018-11-11T19:57:56.854Z,12.20
2018-11-11T20:03:01.542Z,12.20
2018-11-11T20:08:07.049Z,12.20
2018-11-11T20:13:11.417Z,12.20
2018-11-11T20:18:20.211Z,12.30
2018-11-11T20:23:30.158Z,12.30
2018-11-11T20:28:52.270Z,12.40
2018-11-11T20:33:55.895Z,12.50
2018-11-11T20:39:17.343Z,12.60
2018-11-11T20:49:20.688Z,12.70
2018-11-11T20:59:32.586Z,12.90
2018-11-11T21:04:36.838Z,12.90
2018-11-11T21:09:40.631Z,12.90
2018-11-11T21:14:51.955Z,12.90
2018-11-11T21:19:55.565Z,13.10
2018-11-11T21:25:00.305Z,13.30
2018-11-11T21:30:18.981Z,13.50
2018-11-11T21:35:30.689Z,13.70
2018-11-11T21:40:39.727Z,13.90
2018-11-11T21:45:43.287Z,14.00
2018-11-11T21:50:53.236Z,14.20
2018-11-11T21:55:56.781Z,14.30
2018-11-11T22:01:02.449Z,14.40
2018-11-11T22:06:12.554Z,14.50
2018-11-11T22:11:16.321Z,14.50
2018-11-11T22:16:20.050Z,14.50
2018-11-11T22:21:24.945Z,14.40
2018-11-11T22:26:35.597Z,14.50
2018-11-11T22:31:41.195Z,14.40
2018-11-11T22:36:47.153Z,14.30
2018-11-11T22:41:52.423Z,14.30
2018-11-11T22:46:55.929Z,14.30
2018-11-11T22:57:33.462Z,14.20
2018-11-11T23:10:25.512Z,14.00
2018-11-11T23:16:32.110Z,13.80
2018-11-11T23:21:38.150Z,13.60
2018-11-11T23:26:42.469Z,13.50
2018-11-11T23:31:47.921Z,13.30
2018-11-11T23:36:58.886Z,13.10
2018-11-11T23:42:05.553Z,13.00
2018-11-11T23:47:10.865Z,12.80
2018-11-11T23:52:19.335Z,12.70
2018-11-11T23:57:23.714Z,12.50
